createdAt,value
2023-04-27T00:00:39.392Z,57.61
2023-04-27T00:01:39.490Z,57.78
2023-04-27T00:02:39.570Z,57.88
2023-04-27T00:03:39.552Z,58.34
2023-04-27T00:04:39.687Z,57.99
2023-04-27T00:05:39.737Z,61.04
2023-04-27T00:06:39.379Z,57.91
2023-04-27T00:07:39.376Z,57.64
2023-04-27T00:08:40.200Z,58.88
2023-04-27T00:09:39.321Z,60.00
2023-04-27T00:10:39.319Z,61.54
2023-04-27T00:11:39.377Z,58.64
2023-04-27T00:12:39.336Z,57.82
2023-04-27T00:13:39.341Z,60.81
2023-04-27T00:14:39.285Z,60.00
2023-04-27T00:15:39.306Z,58.68
2023-04-27T00:16:40.315Z,57.95
2023-04-27T00:17:39.356Z,58.08
2023-04-27T00:18:39.269Z,60.59
2023-04-27T00:19:39.278Z,58.07
2023-04-27T00:20:39.270Z,60.65
2023-04-27T00:21:39.261Z,58.12
2023-04-27T00:22:40.239Z,58.03
2023-04-27T00:23:39.241Z,57.91
2023-04-27T00:24:39.270Z,58.03
2023-04-27T00:25:39.231Z,63.42
2023-04-27T00:26:39.258Z,62.30
2023-04-27T00:27:39.234Z,58.18
2023-04-27T00:28:39.206Z,62.87
2023-04-27T00:29:39.286Z,58.53
2023-04-27T00:30:39.181Z,58.17
2023-04-27T00:31:39.196Z,58.49
2023-04-27T00:32:39.212Z,58.52
2023-04-27T00:33:39.196Z,63.77
2023-04-27T00:34:39.167Z,59.07
2023-04-27T00:35:39.160Z,62.28
2023-04-27T00:36:39.162Z,61.87
2023-04-27T00:37:39.203Z,62.54
2023-04-27T00:38:39.127Z,57.56
2023-04-27T00:39:39.158Z,57.57
2023-04-27T00:40:39.132Z,57.46
2023-04-27T00:41:39.127Z,57.76
2023-04-27T00:42:39.136Z,58.21
2023-04-27T00:43:39.124Z,59.41
2023-04-27T00:44:39.930Z,57.40
2023-04-27T00:45:40.168Z,64.10
2023-04-27T00:46:39.123Z,57.69
2023-04-27T00:47:39.117Z,64.38
2023-04-27T00:48:39.078Z,57.55
2023-04-27T00:49:39.085Z,63.46
2023-04-27T00:50:39.110Z,64.96
2023-04-27T00:51:39.090Z,60.27
2023-04-27T00:52:39.052Z,59.98
2023-04-27T00:53:39.085Z,57.35
2023-04-27T00:54:39.033Z,60.01
2023-04-27T00:55:39.055Z,57.36
2023-04-27T00:56:39.044Z,57.29
2023-04-27T00:57:39.095Z,57.51
2023-04-27T00:58:39.032Z,57.39
2023-04-27T00:59:39.029Z,57.28
2023-04-27T01:00:39.027Z,57.63
2023-04-27T01:01:39.064Z,61.23
2023-04-27T01:02:39.336Z,57.48
2023-04-27T01:03:39.238Z,62.64
2023-04-27T01:04:39.070Z,63.73
2023-04-27T01:05:38.981Z,57.60
2023-04-27T01:06:38.973Z,57.64
2023-04-27T01:07:39.011Z,57.79
2023-04-27T01:08:39.014Z,57.60
2023-04-27T01:09:38.961Z,57.69
2023-04-27T01:10:38.952Z,61.05
2023-04-27T01:11:38.970Z,57.72
2023-04-27T01:12:38.969Z,61.42
2023-04-27T01:13:38.951Z,57.80
2023-04-27T01:14:38.934Z,57.83
2023-04-27T01:15:38.936Z,57.96
2023-04-27T01:16:38.960Z,60.78
2023-04-27T01:17:38.973Z,58.08
2023-04-27T01:18:38.889Z,63.12
2023-04-27T01:19:38.895Z,62.43
2023-04-27T01:20:39.080Z,58.04
2023-04-27T01:21:38.890Z,58.03
2023-04-27T01:22:38.871Z,58.11
2023-04-27T01:23:38.878Z,57.91
2023-04-27T01:24:38.858Z,57.87
2023-04-27T01:25:38.892Z,61.22
2023-04-27T01:26:38.888Z,57.96
2023-04-27T01:27:38.837Z,60.21
2023-04-27T01:28:38.889Z,57.87
2023-04-27T01:29:38.815Z,61.53
2023-04-27T01:30:38.829Z,61.42
2023-04-27T01:31:38.890Z,58.68
2023-04-27T01:32:38.884Z,57.98
2023-04-27T01:33:39.825Z,58.83
2023-04-27T01:34:38.806Z,63.13
2023-04-27T01:35:38.781Z,58.45
2023-04-27T01:36:38.789Z,58.40
2023-04-27T01:37:38.790Z,61.74
2023-04-27T01:38:38.795Z,64.60
2023-04-27T01:39:38.808Z,58.71
2023-04-27T01:40:38.746Z,59.34
2023-04-27T01:41:38.762Z,59.48
2023-04-27T01:42:38.754Z,60.46
2023-04-27T01:43:38.741Z,60.07
2023-04-27T01:44:38.769Z,58.45
2023-04-27T01:45:38.754Z,58.71
2023-04-27T01:46:38.814Z,62.10
2023-04-27T01:47:38.759Z,63.70
2023-04-27T01:48:38.776Z,68.20
2023-04-27T01:49:38.744Z,61.52
2023-04-27T01:50:38.724Z,58.09
2023-04-27T01:51:38.696Z,61.01
2023-04-27T01:52:38.704Z,60.18
2023-04-27T01:53:38.754Z,64.41
2023-04-27T01:54:38.698Z,60.21
2023-04-27T01:55:38.683Z,59.62
2023-04-27T01:56:38.662Z,60.90
2023-04-27T01:57:38.705Z,60.02
2023-04-27T01:58:38.738Z,58.98
2023-04-27T01:59:38.658Z,58.31
2023-04-27T02:00:38.623Z,58.35
2023-04-27T02:01:38.742Z,58.10
2023-04-27T02:02:38.728Z,57.96
2023-04-27T02:03:38.860Z,57.88
2023-04-27T02:04:38.775Z,63.44
2023-04-27T02:05:38.600Z,58.21
2023-04-27T02:06:38.638Z,61.93
2023-04-27T02:07:38.613Z,58.53
2023-04-27T02:08:38.608Z,58.58
2023-04-27T02:09:38.623Z,58.97
2023-04-27T02:10:38.589Z,59.00
2023-04-27T02:11:38.597Z,64.98
2023-04-27T02:12:38.563Z,60.75
2023-04-27T02:13:38.603Z,64.30
2023-04-27T02:14:38.547Z,59.26
2023-04-27T02:15:38.552Z,59.28
2023-04-27T02:16:38.606Z,64.13
2023-04-27T02:17:38.612Z,62.72
2023-04-27T02:18:38.627Z,58.92
2023-04-27T02:19:39.526Z,61.17
2023-04-27T02:20:38.544Z,58.74
2023-04-27T02:21:38.507Z,58.88
2023-04-27T02:22:38.534Z,63.00
2023-04-27T02:23:38.561Z,58.54
2023-04-27T02:24:38.494Z,58.49
2023-04-27T02:25:38.555Z,63.53
2023-04-27T02:26:38.547Z,58.34
2023-04-27T02:27:38.531Z,64.44
2023-04-27T02:28:38.506Z,58.05
2023-04-27T02:29:38.517Z,59.03
2023-04-27T02:30:38.444Z,58.83
2023-04-27T02:31:38.489Z,63.27
2023-04-27T02:32:38.495Z,59.34
2023-04-27T02:33:38.467Z,61.11
2023-04-27T02:34:38.430Z,60.63
2023-04-27T02:35:38.477Z,65.87
2023-04-27T02:36:38.437Z,57.78
2023-04-27T02:37:38.433Z,58.00
2023-04-27T02:38:38.450Z,60.70
2023-04-27T02:39:38.462Z,61.85
2023-04-27T02:40:38.397Z,62.00
2023-04-27T02:41:38.397Z,62.87
2023-04-27T02:42:38.397Z,61.85
2023-04-27T02:43:38.389Z,64.54
2023-04-27T02:44:38.380Z,59.44
2023-04-27T02:45:38.440Z,59.36
2023-04-27T02:46:38.411Z,61.80
2023-04-27T02:47:38.386Z,62.75
2023-04-27T02:48:38.390Z,61.05
2023-04-27T02:49:38.355Z,65.38
2023-04-27T02:50:38.411Z,62.71
2023-04-27T02:51:38.352Z,66.61
2023-04-27T02:52:38.316Z,64.81
2023-04-27T02:53:38.313Z,59.52
2023-04-27T02:54:38.336Z,60.68
2023-04-27T02:55:38.308Z,68.55
2023-04-27T02:56:38.332Z,69.95
2023-04-27T02:57:38.306Z,63.09
2023-04-27T02:58:38.309Z,62.95
2023-04-27T02:59:38.354Z,64.15
2023-04-27T03:00:38.266Z,63.23
2023-04-27T03:01:38.398Z,61.50
2023-04-27T03:02:38.530Z,59.96
2023-04-27T03:03:38.363Z,68.85
2023-04-27T03:04:38.378Z,67.62
2023-04-27T03:05:38.225Z,66.44
2023-04-27T03:06:38.247Z,65.66
2023-04-27T03:07:38.275Z,64.27
2023-04-27T03:08:38.219Z,68.88
2023-04-27T03:09:38.205Z,66.46
2023-04-27T03:10:38.214Z,68.57
2023-04-27T03:11:38.225Z,68.14
2023-04-27T03:12:38.263Z,68.14
2023-04-27T03:13:38.210Z,64.98
2023-04-27T03:14:38.196Z,65.36
2023-04-27T03:15:38.176Z,67.86
2023-04-27T03:16:38.230Z,68.68
2023-04-27T03:17:38.251Z,63.18
2023-04-27T03:18:38.235Z,69.41
2023-04-27T03:19:38.193Z,64.06
2023-04-27T03:20:38.203Z,65.82
2023-04-27T03:21:38.162Z,65.81
2023-04-27T03:22:38.203Z,63.56
2023-04-27T03:23:38.143Z,65.01
2023-04-27T03:24:38.129Z,66.25
2023-04-27T03:25:38.121Z,69.33
2023-04-27T03:26:38.116Z,68.39
2023-04-27T03:27:38.156Z,68.74
2023-04-27T03:28:38.130Z,65.60
2023-04-27T03:29:38.144Z,64.54
2023-04-27T03:30:38.190Z,66.29
2023-04-27T03:31:38.159Z,67.65
2023-04-27T03:32:38.113Z,69.30
2023-04-27T03:33:38.157Z,74.19
2023-04-27T03:34:38.134Z,68.61
2023-04-27T03:35:38.120Z,66.04
2023-04-27T03:36:38.077Z,70.62
2023-04-27T03:37:38.143Z,68.55
2023-04-27T03:38:38.142Z,66.17
2023-04-27T03:39:38.111Z,68.46
2023-04-27T03:40:38.082Z,68.97
2023-04-27T03:41:38.141Z,67.28
2023-04-27T03:42:38.029Z,72.76
2023-04-27T03:43:38.080Z,72.25
2023-04-27T03:44:38.012Z,66.44
2023-04-27T03:45:38.033Z,70.90
2023-04-27T03:46:38.057Z,70.48
2023-04-27T03:47:38.040Z,66.32
2023-04-27T03:48:37.992Z,73.17
2023-04-27T03:49:38.051Z,72.03
2023-04-27T03:50:37.964Z,69.44
2023-04-27T03:51:37.991Z,68.50
2023-04-27T03:52:37.961Z,73.80
2023-04-27T03:53:38.079Z,67.76
2023-04-27T03:54:38.985Z,69.10
2023-04-27T03:55:37.973Z,65.72
2023-04-27T03:56:37.937Z,68.71
2023-04-27T03:57:37.985Z,69.31
2023-04-27T03:58:37.922Z,71.79
2023-04-27T03:59:37.926Z,71.31
2023-04-27T04:00:37.944Z,71.03
2023-04-27T04:01:37.941Z,66.47
2023-04-27T04:02:38.033Z,69.41
2023-04-27T04:03:38.031Z,65.41
2023-04-27T04:04:38.103Z,66.31
2023-04-27T04:05:37.916Z,68.46
2023-04-27T04:06:37.875Z,69.45
2023-04-27T04:07:37.886Z,77.51
2023-04-27T04:08:37.901Z,73.22
2023-04-27T04:09:37.892Z,74.10
2023-04-27T04:10:37.899Z,69.76
2023-04-27T04:11:37.907Z,65.40
2023-04-27T04:12:37.878Z,70.46
2023-04-27T04:13:37.837Z,70.98
2023-04-27T04:14:37.827Z,70.56
2023-04-27T04:15:37.882Z,72.59
2023-04-27T04:16:37.863Z,69.02
2023-04-27T04:17:37.851Z,69.61
2023-04-27T04:18:37.888Z,69.17
2023-04-27T04:19:37.824Z,67.13
2023-04-27T04:20:37.822Z,74.04
2023-04-27T04:21:37.782Z,71.69
2023-04-27T04:22:37.814Z,71.81
2023-04-27T04:23:37.777Z,69.68
2023-04-27T04:24:37.796Z,71.09
2023-04-27T04:25:37.800Z,71.42
2023-04-27T04:26:37.813Z,70.36
2023-04-27T04:27:37.745Z,71.32
2023-04-27T04:28:37.763Z,72.02
2023-04-27T04:29:37.733Z,72.90
2023-04-27T04:30:37.743Z,70.91
2023-04-27T04:31:37.806Z,72.92
2023-04-27T04:32:38.029Z,72.36
2023-04-27T04:33:37.937Z,70.20
2023-04-27T04:34:37.724Z,69.46
2023-04-27T04:35:37.741Z,69.80
2023-04-27T04:36:38.044Z,69.46
2023-04-27T04:37:37.748Z,65.58
2023-04-27T04:38:37.698Z,73.24
2023-04-27T04:39:37.716Z,71.21
2023-04-27T04:40:37.708Z,69.86
2023-04-27T04:41:37.683Z,74.77
2023-04-27T04:42:37.683Z,71.53
2023-04-27T04:43:37.665Z,74.76
2023-04-27T04:44:37.666Z,75.67
2023-04-27T04:45:37.638Z,73.31
2023-04-27T04:46:37.810Z,73.13
2023-04-27T04:47:37.694Z,70.97
2023-04-27T04:48:37.668Z,70.93
2023-04-27T04:49:37.650Z,74.71
2023-04-27T04:50:37.651Z,75.11
2023-04-27T04:51:37.611Z,70.86
2023-04-27T04:52:37.609Z,73.08
2023-04-27T04:53:37.604Z,75.39
2023-04-27T04:54:37.608Z,73.18
2023-04-27T04:55:37.669Z,73.68
2023-04-27T04:56:37.594Z,69.47
2023-04-27T04:57:37.618Z,71.45
2023-04-27T04:58:37.638Z,72.06
2023-04-27T04:59:37.563Z,71.91
2023-04-27T05:00:37.586Z,71.16
2023-04-27T05:01:37.698Z,71.21
2023-04-27T05:02:37.686Z,69.54
2023-04-27T05:03:37.807Z,72.36
2023-04-27T05:04:37.696Z,71.31
2023-04-27T05:05:37.565Z,69.26
2023-04-27T05:06:37.555Z,73.26
2023-04-27T05:07:37.543Z,72.27
2023-04-27T05:08:37.585Z,71.04
2023-04-27T05:09:37.559Z,71.53
2023-04-27T05:10:37.518Z,74.65
2023-04-27T05:11:37.532Z,73.20
2023-04-27T05:12:37.586Z,74.35
2023-04-27T05:13:37.519Z,69.90
2023-04-27T05:14:37.495Z,71.58
2023-04-27T05:15:37.507Z,68.65
2023-04-27T05:16:37.710Z,70.80
2023-04-27T05:17:37.530Z,72.77
2023-04-27T05:18:37.530Z,74.33
2023-04-27T05:19:37.470Z,73.55
2023-04-27T05:20:37.445Z,73.74
2023-04-27T05:21:37.466Z,74.85
2023-04-27T05:22:37.525Z,73.94
2023-04-27T05:23:37.478Z,69.61
2023-04-27T05:24:37.479Z,72.92
2023-04-27T05:25:37.423Z,67.89
2023-04-27T05:26:37.423Z,71.90
2023-04-27T05:27:37.446Z,72.36
2023-04-27T05:28:37.408Z,73.31
2023-04-27T05:29:37.714Z,72.53
2023-04-27T05:30:37.448Z,70.87
2023-04-27T05:31:37.472Z,69.02
2023-04-27T05:32:37.527Z,72.11
2023-04-27T05:33:37.533Z,74.53
2023-04-27T05:34:37.349Z,72.58
2023-04-27T05:35:37.377Z,71.96
2023-04-27T05:36:37.372Z,69.05
2023-04-27T05:37:37.363Z,72.83
2023-04-27T05:38:37.365Z,74.59
2023-04-27T05:39:37.343Z,74.06
2023-04-27T05:40:37.334Z,73.40
2023-04-27T05:41:37.337Z,73.65
2023-04-27T05:42:37.356Z,74.58
2023-04-27T05:43:37.317Z,69.75
2023-04-27T05:44:37.291Z,75.00
2023-04-27T05:45:37.386Z,71.69
2023-04-27T05:46:38.794Z,72.33
2023-04-27T05:47:38.345Z,71.66
2023-04-27T05:48:37.277Z,72.83
2023-04-27T05:49:37.358Z,69.37
2023-04-27T05:50:37.294Z,73.01
2023-04-27T05:51:37.281Z,72.83
2023-04-27T05:52:38.325Z,70.53
2023-04-27T05:53:37.299Z,72.80
2023-04-27T05:54:37.329Z,70.25
2023-04-27T05:55:37.316Z,72.18
2023-04-27T05:56:37.237Z,67.89
2023-04-27T05:57:37.230Z,73.29
2023-04-27T05:58:37.245Z,71.78
2023-04-27T05:59:37.217Z,72.33
2023-04-27T06:00:37.225Z,69.25
2023-04-27T06:01:37.208Z,71.63
2023-04-27T06:02:37.316Z,72.58
2023-04-27T06:03:37.319Z,71.67
2023-04-27T06:04:37.310Z,71.21
2023-04-27T06:05:37.270Z,70.46
2023-04-27T06:06:37.175Z,71.62
2023-04-27T06:07:37.186Z,70.22
2023-04-27T06:08:37.190Z,71.84
2023-04-27T06:09:37.290Z,71.44
2023-04-27T06:10:38.207Z,69.51
2023-04-27T06:11:37.170Z,64.48
2023-04-27T06:12:37.151Z,73.38
2023-04-27T06:13:37.163Z,72.37
2023-04-27T06:14:37.111Z,72.04
2023-04-27T06:15:37.192Z,68.26
2023-04-27T06:16:37.108Z,72.90
2023-04-27T06:17:38.172Z,73.30
2023-04-27T06:18:37.136Z,68.06
2023-04-27T06:19:37.218Z,73.15
2023-04-27T06:20:37.088Z,80.59
2023-04-27T06:21:37.111Z,75.35
2023-04-27T06:22:37.089Z,72.54
2023-04-27T06:23:37.077Z,70.85
2023-04-27T06:24:37.065Z,72.53
2023-04-27T06:25:37.075Z,72.01
2023-04-27T06:26:37.060Z,72.58
2023-04-27T06:27:37.085Z,71.34
2023-04-27T06:28:37.058Z,72.11
2023-04-27T06:29:37.057Z,74.08
2023-04-27T06:30:38.287Z,72.31
2023-04-27T06:31:38.063Z,70.65
2023-04-27T06:32:37.066Z,72.76
2023-04-27T06:33:37.026Z,72.93
2023-04-27T06:34:36.994Z,70.16
2023-04-27T06:35:37.017Z,67.64
2023-04-27T06:36:36.975Z,70.83
2023-04-27T06:37:36.989Z,69.25
2023-04-27T06:38:36.999Z,72.50
2023-04-27T06:39:37.000Z,72.83
2023-04-27T06:40:37.005Z,71.62
2023-04-27T06:41:36.986Z,72.80
2023-04-27T06:42:36.950Z,72.98
2023-04-27T06:43:36.986Z,72.11
2023-04-27T06:44:36.994Z,74.37
2023-04-27T06:45:36.939Z,72.85
2023-04-27T06:46:37.015Z,72.02
2023-04-27T06:47:36.907Z,70.41
2023-04-27T06:48:36.927Z,71.65
2023-04-27T06:49:36.908Z,69.39
2023-04-27T06:50:36.946Z,70.76
2023-04-27T06:51:36.925Z,72.47
2023-04-27T06:52:36.903Z,71.40
2023-04-27T06:53:36.943Z,71.19
2023-04-27T06:54:36.905Z,72.56
2023-04-27T06:55:36.914Z,72.75
2023-04-27T06:56:36.900Z,69.59
2023-04-27T06:57:36.946Z,69.85
2023-04-27T06:58:36.850Z,73.49
2023-04-27T06:59:36.866Z,72.22
2023-04-27T07:00:36.859Z,73.00
2023-04-27T07:01:36.926Z,71.05
2023-04-27T07:02:36.998Z,72.98
2023-04-27T07:03:37.076Z,67.81
2023-04-27T07:04:36.870Z,72.29
2023-04-27T07:05:36.908Z,71.25
2023-04-27T07:06:36.810Z,72.60
2023-04-27T07:07:36.886Z,72.51
2023-04-27T07:08:36.894Z,71.43
2023-04-27T07:09:36.818Z,67.22
2023-04-27T07:10:36.784Z,71.81
2023-04-27T07:11:36.781Z,72.44
2023-04-27T07:12:36.797Z,73.21
2023-04-27T07:13:36.797Z,67.21
2023-04-27T07:14:36.759Z,71.33
2023-04-27T07:15:36.962Z,68.18
2023-04-27T07:16:36.950Z,69.00
2023-04-27T07:18:11.756Z,70.83
2023-04-27T07:19:11.896Z,74.73
2023-04-27T07:20:11.780Z,68.15
2023-04-27T07:21:14.779Z,60.71
2023-04-27T07:22:13.766Z,71.69
2023-04-27T07:22:36.826Z,75.62
2023-04-27T07:24:14.677Z,67.54
2023-04-27T07:24:36.853Z,69.63
2023-04-27T07:26:11.723Z,69.57
2023-04-27T07:27:11.724Z,75.22
2023-04-27T07:28:11.414Z,73.04
2023-04-27T07:29:26.377Z,66.06
2023-04-27T07:29:37.808Z,73.22
2023-04-27T07:31:12.790Z,71.13
2023-04-27T07:31:36.868Z,68.43
2023-04-27T07:33:11.967Z,70.11
2023-04-27T07:34:16.706Z,63.06
2023-04-27T07:34:48.943Z,73.38
2023-04-27T07:41:38.582Z,70.43
2023-04-27T07:42:37.922Z,70.61
2023-04-27T07:43:37.906Z,70.78
2023-04-27T07:44:37.891Z,68.22
2023-04-27T07:45:37.911Z,72.14
2023-04-27T07:46:37.853Z,71.63
2023-04-27T07:47:37.922Z,69.45
2023-04-27T07:48:37.850Z,72.43
2023-04-27T07:49:37.866Z,73.17
2023-04-27T07:50:37.833Z,71.60
2023-04-27T07:51:37.847Z,69.29
2023-04-27T07:52:37.887Z,72.20
2023-04-27T07:53:37.807Z,69.86
2023-04-27T07:54:37.821Z,63.59
2023-04-27T07:55:37.808Z,72.04
2023-04-27T07:56:37.824Z,66.10
2023-04-27T07:57:37.849Z,72.61
2023-04-27T07:58:37.796Z,69.01
2023-04-27T07:59:37.769Z,69.84
2023-04-27T08:00:37.877Z,69.28
2023-04-27T08:01:37.812Z,70.85
2023-04-27T08:02:37.900Z,70.62
2023-04-27T08:03:38.112Z,73.17
2023-04-27T08:04:38.235Z,70.98
2023-04-27T08:05:37.842Z,72.79
2023-04-27T08:06:38.258Z,70.45
2023-04-27T08:07:44.116Z,72.28
2023-04-27T08:08:39.745Z,64.78
2023-04-27T08:09:37.721Z,70.89
2023-04-27T08:10:37.703Z,75.44
2023-04-27T08:11:37.730Z,68.56
2023-04-27T08:12:37.735Z,72.29
2023-04-27T08:13:37.723Z,68.46
2023-04-27T08:14:37.678Z,66.12
2023-04-27T08:15:37.702Z,71.15
2023-04-27T08:16:37.850Z,66.95
2023-04-27T08:17:37.691Z,69.23
2023-04-27T08:18:37.730Z,70.44
2023-04-27T08:19:37.710Z,71.57
2023-04-27T08:20:37.633Z,70.45
2023-04-27T08:21:37.685Z,71.18
2023-04-27T08:22:37.638Z,70.86
2023-04-27T08:23:37.647Z,73.35
2023-04-27T08:24:37.650Z,70.83
2023-04-27T08:25:37.663Z,70.53
2023-04-27T08:26:37.641Z,66.49
2023-04-27T08:27:37.617Z,71.53
2023-04-27T08:28:37.656Z,73.02
2023-04-27T08:29:37.602Z,64.80
2023-04-27T08:30:37.623Z,69.46
2023-04-27T08:31:37.723Z,70.18
2023-04-27T08:32:37.764Z,70.75
2023-04-27T08:33:37.587Z,74.42
2023-04-27T08:34:37.604Z,73.55
2023-04-27T08:35:37.714Z,70.69
2023-04-27T08:36:37.705Z,68.11
2023-04-27T08:37:37.557Z,66.59
2023-04-27T08:38:37.569Z,68.00
2023-04-27T08:39:37.594Z,73.64
2023-04-27T08:40:37.522Z,69.73
2023-04-27T08:41:37.681Z,73.99
2023-04-27T08:42:37.485Z,68.33
2023-04-27T08:43:37.522Z,73.66
2023-04-27T08:44:38.599Z,70.96
2023-04-27T08:45:37.487Z,70.51
2023-04-27T08:46:37.515Z,72.84
2023-04-27T08:47:43.279Z,68.84
2023-04-27T08:48:39.540Z,65.44
2023-04-27T08:49:37.602Z,70.99
2023-04-27T08:50:37.501Z,74.03
2023-04-27T08:51:37.847Z,75.47
2023-04-27T08:52:37.736Z,70.54
2023-04-27T08:53:37.578Z,71.20
2023-04-27T08:54:37.549Z,67.39
2023-04-27T08:55:37.456Z,71.69
2023-04-27T08:56:37.432Z,65.88
2023-04-27T08:57:37.500Z,65.27
2023-04-27T08:58:37.412Z,69.96
2023-04-27T08:59:37.422Z,68.96
2023-04-27T09:00:37.385Z,69.17
2023-04-27T09:01:37.580Z,69.54
2023-04-27T09:02:37.481Z,68.20
2023-04-27T09:03:37.552Z,67.62
2023-04-27T09:04:37.637Z,71.86
2023-04-27T09:05:37.456Z,71.02
2023-04-27T09:06:37.454Z,70.43
2023-04-27T09:07:37.398Z,66.88
2023-04-27T09:08:37.435Z,62.83
2023-04-27T09:09:37.355Z,69.17
2023-04-27T09:10:37.343Z,69.37
2023-04-27T09:11:37.361Z,73.04
2023-04-27T09:12:37.390Z,69.99
2023-04-27T09:13:37.327Z,71.13
2023-04-27T09:14:37.974Z,70.97
2023-04-27T09:15:37.402Z,70.15
2023-04-27T09:16:37.458Z,68.52
2023-04-27T09:17:37.338Z,69.29
2023-04-27T09:18:37.323Z,68.71
2023-04-27T09:19:37.376Z,71.95
2023-04-27T09:20:37.330Z,71.18
2023-04-27T09:21:37.310Z,67.35
2023-04-27T09:22:37.269Z,69.07
2023-04-27T09:23:37.488Z,65.42
2023-04-27T09:28:21.792Z,69.31
2023-04-27T09:29:57.672Z,70.65
2023-04-27T09:30:22.648Z,70.87
2023-04-27T09:31:21.663Z,71.18
2023-04-27T09:32:21.762Z,68.78
2023-04-27T09:33:21.530Z,74.76
2023-04-27T09:34:21.532Z,70.26
2023-04-27T09:35:21.817Z,70.94
2023-04-27T09:36:21.732Z,65.64
2023-04-27T09:37:21.531Z,71.75
2023-04-27T09:38:21.579Z,71.51
2023-04-27T09:39:21.762Z,67.38
2023-04-27T09:40:21.509Z,71.06
2023-04-27T09:41:21.807Z,66.91
2023-04-27T09:42:21.689Z,69.95
2023-04-27T09:43:21.599Z,72.91
2023-04-27T09:44:21.565Z,69.66
2023-04-27T09:45:21.611Z,70.73
2023-04-27T09:46:21.628Z,65.16
2023-04-27T09:47:21.665Z,69.15
2023-04-27T09:48:21.550Z,64.63
2023-04-27T09:49:21.758Z,69.16
2023-04-27T09:50:21.461Z,69.95
2023-04-27T09:51:21.475Z,70.25
2023-04-27T09:52:21.568Z,67.77
2023-04-27T09:53:21.595Z,68.48
2023-04-27T09:54:21.592Z,71.14
2023-04-27T09:55:21.512Z,72.23
2023-04-27T09:56:22.409Z,68.46
2023-04-27T09:57:21.418Z,66.52
2023-04-27T09:58:21.404Z,73.98
2023-04-27T09:59:21.437Z,72.01
2023-04-27T10:00:21.410Z,69.75
2023-04-27T10:01:21.469Z,70.46
2023-04-27T10:02:25.135Z,67.02
2023-04-27T10:03:23.243Z,67.50
2023-04-27T10:04:22.001Z,68.04
2023-04-27T10:05:21.656Z,71.28
2023-04-27T10:06:21.490Z,68.19
2023-04-27T10:07:21.486Z,64.47
2023-04-27T10:08:21.410Z,69.32
2023-04-27T10:09:21.951Z,65.76
2023-04-27T10:10:21.629Z,71.14
2023-04-27T10:11:21.344Z,70.77
2023-04-27T10:12:21.426Z,69.81
2023-04-27T10:13:21.416Z,70.13
2023-04-27T10:14:21.594Z,69.71
2023-04-27T10:15:21.353Z,70.47
2023-04-27T10:16:21.535Z,71.96
2023-04-27T10:17:21.263Z,69.80
2023-04-27T10:18:21.432Z,70.24
2023-04-27T10:19:21.345Z,66.24
2023-04-27T10:20:21.893Z,70.61
2023-04-27T10:21:23.188Z,71.31
2023-04-27T10:22:21.301Z,71.47
2023-04-27T10:23:21.399Z,70.49
2023-04-27T10:24:21.325Z,67.99
2023-04-27T10:25:21.278Z,69.37
2023-04-27T10:26:21.216Z,69.00
2023-04-27T10:27:21.181Z,69.66
2023-04-27T10:28:21.207Z,70.70
2023-04-27T10:29:21.187Z,71.40
2023-04-27T10:30:21.221Z,67.03
2023-04-27T10:31:21.192Z,70.41
2023-04-27T10:32:21.161Z,71.00
2023-04-27T10:33:21.163Z,70.93
2023-04-27T10:34:21.596Z,69.55
2023-04-27T10:35:22.175Z,68.72
2023-04-27T10:36:21.130Z,71.50
2023-04-27T10:37:21.197Z,69.42
2023-04-27T10:38:21.314Z,72.54
2023-04-27T10:39:25.578Z,69.53
2023-04-27T10:40:22.111Z,70.94
2023-04-27T10:41:21.202Z,74.01
2023-04-27T10:42:21.131Z,71.59
2023-04-27T10:43:21.055Z,71.29
2023-04-27T10:44:21.059Z,70.67
2023-04-27T10:45:21.225Z,69.64
2023-04-27T10:46:21.115Z,70.61
2023-04-27T10:47:21.064Z,68.68
2023-04-27T10:48:21.056Z,68.19
2023-04-27T10:49:21.960Z,72.30
2023-04-27T10:50:21.133Z,70.80
2023-04-27T10:51:22.159Z,71.11
2023-04-27T10:52:21.073Z,69.49
2023-04-27T10:53:21.076Z,70.60
2023-04-27T10:54:21.024Z,70.88
2023-04-27T10:55:21.020Z,72.68
2023-04-27T10:56:21.036Z,67.28
2023-04-27T10:57:21.034Z,70.24
2023-04-27T10:58:20.982Z,71.74
2023-04-27T10:59:20.986Z,70.35
2023-04-27T11:00:20.971Z,72.06
2023-04-27T11:01:20.995Z,68.16
2023-04-27T11:02:21.023Z,71.82
2023-04-27T11:03:21.064Z,69.92
2023-04-27T11:04:21.074Z,67.76
2023-04-27T11:05:21.021Z,69.85
2023-04-27T11:06:21.333Z,68.44
2023-04-27T11:07:21.148Z,70.35
2023-04-27T11:08:22.082Z,69.60
2023-04-27T11:09:21.281Z,70.17
2023-04-27T11:10:21.046Z,62.95
2023-04-27T11:11:20.988Z,72.00
2023-04-27T11:12:20.887Z,69.44
2023-04-27T11:13:20.913Z,72.53
2023-04-27T11:14:20.932Z,71.81
2023-04-27T11:15:20.915Z,71.52
2023-04-27T11:16:21.019Z,63.92
2023-04-27T11:17:20.896Z,72.83
2023-04-27T11:18:20.924Z,71.34
2023-04-27T11:19:20.867Z,71.36
2023-04-27T11:20:20.879Z,69.34
2023-04-27T11:21:20.855Z,69.89
2023-04-27T11:22:20.825Z,70.18
2023-04-27T11:23:20.833Z,69.33
2023-04-27T11:24:20.823Z,73.13
2023-04-27T11:25:20.837Z,72.72
2023-04-27T11:26:20.814Z,69.36
2023-04-27T11:27:20.772Z,69.45
2023-04-27T11:28:20.843Z,68.72
2023-04-27T11:29:20.779Z,70.55
2023-04-27T11:30:20.795Z,72.15
2023-04-27T11:31:20.806Z,74.52
2023-04-27T11:32:20.751Z,71.07
2023-04-27T11:33:20.821Z,68.47
2023-04-27T11:34:20.774Z,72.94
2023-04-27T11:35:20.746Z,70.31
2023-04-27T11:36:20.721Z,71.45
2023-04-27T11:37:20.741Z,72.51
2023-04-27T11:38:20.843Z,72.48
2023-04-27T11:39:20.794Z,71.67
2023-04-27T11:40:22.680Z,71.50
2023-04-27T11:41:20.831Z,71.05
2023-04-27T11:42:21.097Z,71.94
2023-04-27T11:43:21.278Z,72.70
2023-04-27T11:44:20.880Z,74.02
2023-04-27T11:45:21.149Z,69.98
2023-04-27T11:46:23.461Z,72.32
2023-04-27T11:47:21.318Z,70.81
2023-04-27T11:48:20.865Z,71.17
2023-04-27T11:49:22.099Z,72.83
2023-04-27T11:50:20.903Z,67.11
2023-04-27T11:51:21.553Z,66.26
2023-04-27T11:52:20.990Z,73.38
2023-04-27T11:53:21.022Z,70.58
2023-04-27T11:54:20.834Z,73.61
2023-04-27T11:55:20.735Z,72.25
2023-04-27T11:56:20.861Z,70.36
2023-04-27T11:57:20.677Z,72.74
2023-04-27T11:58:20.631Z,71.86
2023-04-27T11:59:20.603Z,71.45
2023-04-27T12:00:20.596Z,71.17
2023-04-27T12:01:27.718Z,71.50
2023-04-27T12:02:22.799Z,71.74
2023-04-27T12:03:21.804Z,70.01
2023-04-27T12:04:20.793Z,70.77
2023-04-27T12:05:20.626Z,70.79
2023-04-27T12:06:32.229Z,69.36
2023-04-27T12:07:22.563Z,68.13
2023-04-27T12:08:20.995Z,70.76
2023-04-27T12:09:20.590Z,68.38
2023-04-27T12:10:20.539Z,69.98
2023-04-27T12:11:20.852Z,72.43
2023-04-27T12:12:20.516Z,74.57
2023-04-27T12:13:20.525Z,71.25
2023-04-27T12:14:20.557Z,69.75
2023-04-27T12:15:20.543Z,70.75
2023-04-27T12:16:20.610Z,72.01
2023-04-27T12:17:20.560Z,71.64
2023-04-27T12:18:20.498Z,68.70
2023-04-27T12:19:20.547Z,71.76
2023-04-27T12:20:20.493Z,71.33
2023-04-27T12:21:20.650Z,67.73
2023-04-27T12:22:20.479Z,71.65
2023-04-27T12:23:20.508Z,71.74
2023-04-27T12:24:20.458Z,71.55
2023-04-27T12:25:20.429Z,69.61
2023-04-27T12:26:20.471Z,71.98
2023-04-27T12:27:20.441Z,70.95
2023-04-27T12:28:20.433Z,71.44
2023-04-27T12:29:20.437Z,71.04
2023-04-27T12:30:20.421Z,73.28
2023-04-27T12:31:20.443Z,73.34
2023-04-27T12:32:21.116Z,70.63
2023-04-27T12:33:21.511Z,70.65
2023-04-27T12:34:20.407Z,71.79
2023-04-27T12:35:53.938Z,68.29
2023-04-27T12:36:20.452Z,73.03
2023-04-27T12:37:53.862Z,70.86
2023-04-27T12:38:56.373Z,71.60
2023-04-27T12:39:20.485Z,72.99
2023-04-27T12:40:56.364Z,70.83
2023-04-27T12:41:20.418Z,71.57
2023-04-27T12:42:55.282Z,73.21
2023-04-27T12:43:56.479Z,69.36
2023-04-27T12:44:20.381Z,71.77
2023-04-27T12:45:54.866Z,70.90
2023-04-27T12:46:20.613Z,74.48
2023-04-27T12:52:23.761Z,71.36
2023-04-27T12:52:50.840Z,68.87
2023-04-27T12:53:51.016Z,70.92
2023-04-27T12:54:50.851Z,71.21
2023-04-27T12:55:50.829Z,69.18
2023-04-27T12:56:50.786Z,70.78
2023-04-27T12:57:50.917Z,70.67
2023-04-27T12:58:50.919Z,71.76
2023-04-27T12:59:50.895Z,72.97
2023-04-27T13:00:50.792Z,71.29
2023-04-27T13:01:51.433Z,73.08
2023-04-27T13:02:50.901Z,65.31
2023-04-27T13:03:50.945Z,71.02
2023-04-27T13:04:50.778Z,70.64
2023-04-27T13:05:50.713Z,71.71
2023-04-27T13:06:51.356Z,71.24